Terminal Aerodrome Forecast
Issued by NWS

Home | Current Version | Previous Version | Text Only | Print | Product List | Glossary On
Versions: 1 2 3 4 5 6 7 8 9 10 11 12 13 14 15
000
FTUS42 KMHX 272300
TAFISO
TAF
KISO 272320Z 2800/2824 33005KT P6SM SKC
     FM280900 00000KT 3SM BR SKC
     FM281230 29005KT P6SM FEW030
      AMD LTD TO CLD VIS AND WIND=

USA.gov is the U.S. government's official web portal to all federal, state and local government web resources and services.